Time;durP1;ratioP1;P1;durP2;ratioP2;P2;SDS_P1;SDS_P2;PMS_P1;PMS_P2;Temp;Humidity;BMP_temperature;BMP_pressure;BME280_temperature;BME280_humidity;BME280_pressure;Samples;Min_cycle;Max_cycle;Signal;HPM_P1;HPM_P2
2023/01/26 00:02:23;;;;;;;7.20;6.70;;;;;;;3.18;100.00;41355.97;5055329;28;20186;-63
2023/01/26 00:04:50;;;;;;;7.47;6.97;;;;;;;3.33;100.00;42326.00;5072770;28;20193;-63
2023/01/26 00:07:17;;;;;;;7.63;7.13;;;;;;;3.39;100.00;41370.97;5072661;28;20209;-64
2023/01/26 00:09:44;;;;;;;6.87;6.43;;;;;;;3.34;100.00;43286.44;5072711;28;20188;-64
2023/01/26 00:12:11;;;;;;;7.03;6.60;;;;;;;3.41;100.00;42651.88;5073013;28;20188;-63
2023/01/26 00:14:49;;;;;;;7.17;6.77;;;;;;;3.62;100.00;45228.97;5072767;28;20206;-63
2023/01/26 00:17:24;;;;;;;6.90;6.40;;;;;;;3.29;100.00;51932.03;5072919;28;20246;-63
2023/01/26 00:19:57;;;;;;;6.83;6.40;;;;;;;3.60;100.00;51638.88;5072687;28;20635;-66
2023/01/26 00:22:26;;;;;;;8.20;7.70;;;;;;;3.65;100.00;51643.81;5072669;28;20192;-64
2023/01/26 00:24:53;;;;;;;6.93;6.43;;;;;;;3.67;100.00;55819.66;5072366;28;20185;-64
2023/01/26 00:27:20;;;;;;;7.70;7.13;;;;;;;3.61;100.00;58385.50;5072316;28;20203;-63
2023/01/26 00:29:47;;;;;;;7.83;7.27;;;;;;;3.71;100.00;58394.66;5072200;28;20205;-66
2023/01/26 00:32:14;;;;;;;7.33;6.87;;;;;;;3.69;100.00;57107.13;5072353;28;20224;-65
2023/01/26 00:34:40;;;;;;;7.93;7.43;;;;;;;3.73;100.00;61292.72;5072166;28;20244;-64
2023/01/26 00:37:09;;;;;;;7.37;6.90;;;;;;;3.53;100.00;63525.00;5072415;28;20188;-64
2023/01/26 00:39:36;;;;;;;7.40;6.90;;;;;;;3.58;100.00;59989.88;5072161;28;20189;-64
2023/01/26 00:42:12;;;;;;;7.90;7.40;;;;;;;3.41;100.00;58686.63;5072624;28;20211;-63
2023/01/26 00:44:41;;;;;;;7.53;7.03;;;;;;;3.53;100.00;55484.78;5072574;28;20287;-64
2023/01/26 00:47:09;;;;;;;7.43;6.83;;;;;;;3.44;100.00;53549.69;5071927;28;20205;-64
2023/01/26 00:49:37;;;;;;;7.80;7.20;;;;;;;3.41;100.00;47774.56;5071358;28;20195;-63
2023/01/26 00:52:04;;;;;;;7.53;7.10;;;;;;;3.39;100.00;44570.81;5071814;28;20185;-64
2023/01/26 00:54:32;;;;;;;6.97;6.57;;;;;;;3.37;100.00;40730.00;5072198;28;20559;-63
2023/01/26 00:56:59;;;;;;;7.23;6.83;;;;;;;3.27;100.00;37847.34;5071846;28;20566;-64
2023/01/26 00:59:27;;;;;;;7.43;6.93;;;;;;;3.35;100.00;36894.25;5072288;28;20643;-63
2023/01/26 01:01:54;;;;;;;7.93;7.43;;;;;;;3.40;100.00;33705.63;5071708;28;20192;-64
2023/01/26 01:04:20;;;;;;;8.47;7.77;;;;;;;3.50;100.00;33711.69;5072260;28;20188;-64
2023/01/26 01:06:47;;;;;;;7.93;7.33;;;;;;;3.48;100.00;37861.50;5053979;28;20184;-64
2023/01/26 01:09:14;;;;;;;8.50;7.60;;;;;;;3.64;100.00;41069.38;5071720;28;20208;-64
2023/01/26 01:11:44;;;;;;;7.73;7.23;;;;;;;3.59;100.00;41386.00;5071754;28;20193;-62
2023/01/26 01:14:12;;;;;;;8.57;7.97;;;;;;;3.38;100.00;46170.88;5071807;28;20223;-64
2023/01/26 01:16:38;;;;;;;8.20;7.63;;;;;;;3.32;100.00;45845.38;5072150;28;20563;-64
2023/01/26 01:19:05;;;;;;;8.90;8.03;;;;;;;3.54;100.00;44582.19;5071949;28;20180;-64
2023/01/26 01:21:32;;;;;;;9.30;8.60;;;;;;;3.53;100.00;43621.41;5071798;28;20189;-64
2023/01/26 01:24:00;;;;;;;8.93;8.03;;;;;;;3.66;100.00;43951.22;5071603;28;20191;-63
2023/01/26 01:26:27;;;;;;;9.67;8.30;;;;;;;3.75;100.00;45559.31;5071881;28;20524;-64
2023/01/26 01:28:56;;;;;;;9.77;8.97;;;;;;;3.92;100.00;47817.38;5071587;28;20239;-65
2023/01/26 01:31:24;;;;;;;9.80;8.93;;;;;;;3.74;100.00;52935.09;5071408;28;20245;-63
2023/01/26 01:33:52;;;;;;;9.00;8.20;;;;;;;3.86;100.00;58088.78;5071790;28;20200;-63
2023/01/26 01:36:18;;;;;;;9.67;8.87;;;;;;;3.69;100.00;58714.72;5071265;28;20607;-65
2023/01/26 01:38:46;;;;;;;9.63;8.93;;;;;;;3.72;100.00;56467.25;5071269;28;20272;-63
2023/01/26 01:41:14;;;;;;;10.47;9.50;;;;;;;3.66;100.00;51644.72;5071393;28;20362;-64
2023/01/26 01:43:41;;;;;;;10.43;9.43;;;;;;;3.62;100.00;48112.72;5071400;28;20193;-64
2023/01/26 01:46:15;;;;;;;10.20;9.40;;;;;;;3.60;100.00;44907.16;5071436;28;20287;-64
2023/01/26 01:48:49;;;;;;;10.90;9.77;;;;;;;3.52;100.00;44260.88;5071450;28;20265;-63
2023/01/26 01:51:20;;;;;;;12.93;9.53;;;;;;;3.57;100.00;42024.00;5071435;28;20185;-64
2023/01/26 01:53:51;;;;;;;9.57;8.93;;;;;;;3.60;100.00;40426.78;5071413;28;20548;-64
2023/01/26 01:56:23;;;;;;;8.90;8.10;;;;;;;3.60;100.00;40107.00;5071172;28;20227;-63
2023/01/26 01:58:55;;;;;;;7.83;7.33;;;;;;;3.50;100.00;39460.47;5071232;28;20176;-65
2023/01/26 02:01:25;;;;;;;7.10;6.70;;;;;;;3.41;100.00;39454.16;5072388;28;20192;-64
2023/01/26 02:03:56;;;;;;;8.07;7.50;;;;;;;3.42;100.00;36898.84;5076066;28;20188;-63
2023/01/26 02:06:29;;;;;;;7.80;7.30;;;;;;;3.51;100.00;34619.94;5075386;28;20532;-64
2023/01/26 02:08:57;;;;;;;6.73;6.30;;;;;;;3.31;100.00;34183.75;5075149;28;20211;-64
2023/01/26 02:11:28;;;;;;;6.37;5.87;;;;;;;3.36;100.00;32339.75;5075076;28;20191;-64
2023/01/26 02:13:58;;;;;;;6.33;5.83;;;;;;;3.45;100.00;30516.75;5074969;28;20185;-66
2023/01/26 02:16:26;;;;;;;6.33;5.97;;;;;;;3.08;100.00;31785.88;5075018;28;20185;-64
2023/01/26 02:18:53;;;;;;;6.67;6.27;;;;;;;3.11;100.00;29604.47;5074794;28;20180;-63
2023/01/26 02:21:22;;;;;;;6.47;6.07;;;;;;;3.04;100.00;30262.91;5074889;28;20198;-65
2023/01/26 02:23:58;;;;;;;6.33;5.97;;;;;;;3.29;100.00;30246.19;5074939;28;20188;-64
2023/01/26 02:26:29;;;;;;;6.90;6.50;;;;;;;3.36;100.00;31712.25;5074590;28;20185;-64
2023/01/26 02:28:56;;;;;;;7.37;6.77;;;;;;;3.17;100.00;32829.66;5074674;28;20223;-64
2023/01/26 02:31:25;;;;;;;7.60;6.87;;;;;;;3.23;100.00;33511.25;5074898;28;20551;-64
2023/01/26 02:33:52;;;;;;;6.90;6.40;;;;;;;3.34;100.00;35125.22;5074776;28;20196;-65
2023/01/26 02:36:21;;;;;;;8.57;7.87;;;;;;;3.34;100.00;35928.53;5074823;28;20298;-64
2023/01/26 02:38:56;;;;;;;8.33;7.73;;;;;;;3.38;100.00;37390.59;5074400;28;20192;-64
2023/01/26 02:44:11;;;;;;;9.23;8.63;;;;;;;3.27;100.00;37889.75;5074681;28;20187;-64
2023/01/26 02:46:38;;;;;;;8.77;8.00;;;;;;;3.46;100.00;36073.13;5074406;28;20570;-64
2023/01/26 02:51:49;;;;;;;9.73;8.93;;;;;;;3.23;100.00;39319.59;5074688;28;20182;-65
2023/01/26 02:56:57;;;;;;;10.27;9.27;;;;;;;3.17;100.00;38441.94;5073257;28;20297;-64
2023/01/26 02:59:25;;;;;;;10.23;9.30;;;;;;;3.17;100.00;37449.28;5074183;28;20199;-65
2023/01/26 03:01:55;;;;;;;10.43;9.30;;;;;;;3.20;100.00;36276.47;5074165;28;20187;-64
2023/01/26 03:04:22;;;;;;;14.37;9.73;;;;;;;3.15;100.00;32711.69;5074524;28;20177;-63
2023/01/26 03:06:49;;;;;;;10.70;9.80;;;;;;;3.29;100.00;33272.53;5074923;28;20184;-64
2023/01/26 03:09:16;;;;;;;10.03;9.20;;;;;;;3.36;100.00;34797.31;5074550;28;20205;-64
2023/01/26 03:11:43;;;;;;;9.70;8.77;;;;;;;3.41;100.00;36873.22;5073804;28;20193;-64
2023/01/26 03:14:10;;;;;;;10.10;9.30;;;;;;;3.24;100.00;40848.34;5074182;28;20189;-64
2023/01/26 03:16:38;;;;;;;14.23;9.13;;;;;;;3.13;100.00;39749.75;5073822;28;20187;-63
2023/01/26 03:27:28;;;;;;;11.60;10.40;;;;;;;3.28;100.00;36922.06;5073646;28;20179;-63
2023/01/26 03:29:55;;;;;;;10.73;9.83;;;;;;;3.38;100.00;36135.31;5073568;28;20216;-64
2023/01/26 03:32:24;;;;;;;10.23;9.33;;;;;;;3.42;100.00;35821.44;5073832;28;20631;-64
2023/01/26 03:34:51;;;;;;;10.33;9.40;;;;;;;3.68;100.00;36761.53;5073750;28;20602;-64
2023/01/26 03:37:20;;;;;;;10.67;9.87;;;;;;;3.84;100.00;37875.47;5073923;28;20265;-64
2023/01/26 03:56:23;;;;;;;10.90;9.33;;;;;;;4.04;100.00;34752.06;5073401;28;20184;-65
2023/01/26 03:58:52;;;;;;;9.90;9.10;;;;;;;4.09;100.00;32788.69;5073074;28;20639;-64
2023/01/26 04:01:20;;;;;;;10.17;9.10;;;;;;;4.01;100.00;31858.63;5073154;28;20185;-63
2023/01/26 04:09:22;;;;;;;10.83;9.73;;;;;;;4.28;100.00;32051.31;5072847;28;20253;-67
2023/01/26 04:11:49;;;;;;;9.90;9.10;;;;;;;4.32;100.00;30838.38;5072699;28;20184;-63
2023/01/26 04:22:39;;;;;;;10.53;9.53;;;;;;;4.51;100.00;31535.47;5072640;28;20195;-65
2023/01/26 04:25:07;;;;;;;11.07;9.97;;;;;;;4.51;100.00;29619.13;5071474;28;20207;-64
2023/01/26 04:27:34;;;;;;;10.63;9.47;;;;;;;4.55;100.00;28982.81;5072282;28;20224;-64
2023/01/26 04:30:02;;;;;;;11.60;10.03;;;;;;;4.57;100.00;29303.38;5072097;28;20200;-64
2023/01/26 04:32:29;;;;;;;9.83;8.97;;;;;;;4.50;100.00;30896.09;5072241;28;20180;-63
2023/01/26 04:34:58;;;;;;;9.60;8.90;;;;;;;4.29;100.00;32800.19;5072518;28;20315;-63
2023/01/26 04:37:24;;;;;;;10.43;9.33;;;;;;;4.43;100.00;32169.50;5054701;28;20191;-65
2023/01/26 04:39:51;;;;;;;10.30;8.87;;;;;;;4.36;100.00;32484.88;5072139;28;20185;-65
2023/01/26 04:42:18;;;;;;;11.33;9.47;;;;;;;4.34;100.00;30887.16;5072442;28;20218;-64
2023/01/26 04:44:45;;;;;;;9.77;9.07;;;;;;;4.35;100.00;28972.25;5071806;28;20181;-63
2023/01/26 04:47:12;;;;;;;10.47;9.43;;;;;;;4.31;100.00;26737.31;5072285;28;20564;-63
2023/01/26 04:49:39;;;;;;;10.33;9.43;;;;;;;4.34;100.00;27057.66;5072349;28;20606;-62
2023/01/26 04:52:07;;;;;;;10.53;9.60;;;;;;;4.44;100.00;27062.63;5072443;28;20225;-64
2023/01/26 04:54:34;;;;;;;10.27;9.37;;;;;;;4.44;100.00;28977.00;5072273;28;20661;-64
2023/01/26 04:57:01;;;;;;;9.57;8.77;;;;;;;4.52;100.00;31535.78;5072376;28;20189;-65
2023/01/26 04:59:28;;;;;;;11.60;10.40;;;;;;;4.57;100.00;33456.28;5072453;28;20181;-64
2023/01/26 05:01:55;;;;;;;10.97;9.30;;;;;;;4.60;100.00;34097.16;5072264;28;20660;-65
2023/01/26 05:04:22;;;;;;;12.80;9.87;;;;;;;4.61;100.00;32499.50;5071877;28;20192;-63
2023/01/26 05:06:49;;;;;;;10.20;9.20;;;;;;;4.66;100.00;33141.41;5071647;28;20189;-64
2023/01/26 05:09:17;;;;;;;11.23;10.20;;;;;;;4.73;100.00;34744.78;5071691;28;20205;-64
2023/01/26 05:11:44;;;;;;;11.43;10.37;;;;;;;4.68;100.00;35700.97;5072420;28;20200;-65
2023/01/26 05:14:11;;;;;;;12.00;10.73;;;;;;;4.63;100.00;33459.56;5072089;28;20219;-63
2023/01/26 05:16:38;;;;;;;11.33;10.23;;;;;;;4.35;100.00;31526.38;5053773;28;20188;-63
2023/01/26 05:19:05;;;;;;;11.67;10.50;;;;;;;4.66;100.00;29307.88;5071519;28;20181;-64
2023/01/26 05:21:32;;;;;;;11.50;10.30;;;;;;;4.39;100.00;29931.88;5071519;28;20196;-65
2023/01/26 05:23:59;;;;;;;12.33;11.17;;;;;;;4.70;100.00;31546.03;5054098;28;20645;-64
2023/01/26 05:26:27;;;;;;;12.53;11.27;;;;;;;4.55;100.00;29621.28;5072138;28;20748;-65
2023/01/26 05:28:54;;;;;;;16.13;10.80;;;;;;;4.47;100.00;28659.44;5071421;28;20213;-64
2023/01/26 05:31:21;;;;;;;13.03;11.13;;;;;;;4.37;100.00;28654.22;5071939;28;20195;-64
2023/01/26 05:33:48;;;;;;;13.17;10.67;;;;;;;4.22;100.00;27370.59;5071864;28;20635;-63
2023/01/26 05:36:14;;;;;;;14.73;12.27;;;;;;;3.97;100.00;25446.34;5071234;28;20236;-65
2023/01/26 05:38:41;;;;;;;16.70;13.73;;;;;;;4.02;100.00;24493.03;5071775;28;20560;-64
2023/01/26 05:41:08;;;;;;;19.87;15.50;;;;;;;3.81;100.00;23528.69;5071649;28;20189;-65
2023/01/26 05:43:36;;;;;;;18.77;15.23;;;;;;;3.76;100.00;22812.72;5071324;28;20189;-64
2023/01/26 05:46:03;;;;;;;19.17;14.93;;;;;;;3.86;100.00;24764.41;5071626;28;20608;-64
2023/01/26 05:48:30;;;;;;;23.23;15.27;;;;;;;3.92;100.00;26019.19;5071603;28;20216;-65
2023/01/26 05:50:57;;;;;;;23.23;16.17;;;;;;;3.96;100.00;27634.53;5071753;28;20204;-64
2023/01/26 05:53:24;;;;;;;30.23;16.77;;;;;;;3.94;100.00;28477.88;5071356;28;20188;-64
2023/01/26 05:55:51;;;;;;;24.20;17.23;;;;;;;3.90;100.00;29375.09;5070947;28;20185;-65
2023/01/26 05:58:19;;;;;;;31.20;19.27;;;;;;;3.90;100.00;29833.31;5071014;28;20185;-66
2023/01/26 06:00:47;;;;;;;40.53;22.10;;;;;;;3.86;100.00;29709.06;5071649;28;20188;-63
2023/01/26 06:03:14;;;;;;;44.53;23.20;;;;;;;3.81;100.00;29153.59;5071258;28;20188;-64
2023/01/26 06:05:41;;;;;;;29.73;17.00;;;;;;;3.82;100.00;29816.53;5071343;28;20185;-61
2023/01/26 06:08:07;;;;;;;30.80;17.53;;;;;;;3.87;100.00;29911.41;5071018;28;20184;-65
2023/01/26 06:10:34;;;;;;;17.93;13.83;;;;;;;3.98;100.00;29788.06;5071410;28;20223;-65
2023/01/26 06:13:02;;;;;;;17.40;12.60;;;;;;;3.93;100.00;31884.25;5070887;28;20185;-66
2023/01/26 06:15:29;;;;;;;21.63;14.07;;;;;;;3.85;100.00;32560.06;5071339;28;20628;-64
2023/01/26 06:17:57;;;;;;;17.87;13.33;;;;;;;3.86;100.00;32438.75;5071034;28;20177;-64
2023/01/26 06:20:27;;;;;;;18.83;13.13;;;;;;;3.92;100.00;31080.88;5070943;28;20185;-65
2023/01/26 06:22:54;;;;;;;17.23;13.87;;;;;;;3.93;100.00;31138.47;5071085;28;20682;-65
2023/01/26 06:25:21;;;;;;;19.43;14.00;;;;;;;3.80;100.00;30226.81;5070994;28;20199;-65
2023/01/26 06:27:48;;;;;;;27.57;15.27;;;;;;;4.03;100.00;29967.47;5070735;28;20193;-64
2023/01/26 06:30:15;;;;;;;23.00;14.83;;;;;;;4.05;100.00;30531.91;5070950;28;20219;-64
2023/01/26 06:32:42;;;;;;;26.20;16.17;;;;;;;3.96;100.00;30120.94;5070895;28;20196;-67
2023/01/26 06:35:10;;;;;;;21.40;14.60;;;;;;;3.97;100.00;29463.28;5070796;28;20240;-65
2023/01/26 06:37:37;;;;;;;24.93;15.03;;;;;;;3.93;100.00;28878.41;5070641;28;20191;-66
2023/01/26 06:40:05;;;;;;;17.77;13.30;;;;;;;3.91;100.00;28692.75;5070829;28;20571;-65
2023/01/26 06:42:32;;;;;;;16.60;13.50;;;;;;;4.15;100.00;27785.88;5070497;28;20185;-64
2023/01/26 06:44:59;;;;;;;17.10;13.27;;;;;;;4.11;100.00;28892.88;5070567;28;20189;-64
2023/01/26 06:47:26;;;;;;;17.30;13.17;;;;;;;4.19;100.00;27981.97;5072335;28;20575;-66
2023/01/26 06:49:53;;;;;;;17.93;14.07;;;;;;;4.21;100.00;27699.22;5074083;28;20207;-65
2023/01/26 06:52:27;;;;;;;18.70;13.13;;;;;;;4.16;100.00;27566.91;5074109;28;20275;-64
2023/01/26 06:54:55;;;;;;;18.43;13.80;;;;;;;4.32;100.00;26653.09;5074215;28;20398;-63
2023/01/26 06:57:22;;;;;;;14.13;12.27;;;;;;;4.42;100.00;27106.50;5074163;28;20520;-65
2023/01/26 06:59:49;;;;;;;18.33;12.73;;;;;;;4.56;100.00;26158.94;5074205;28;20318;-65
2023/01/26 07:02:18;;;;;;;16.17;14.07;;;;;;;4.79;100.00;25018.56;5074396;28;20188;-65
2023/01/26 07:04:46;;;;;;;16.00;14.30;;;;;;;4.96;100.00;24804.59;5074022;28;20188;-66
2023/01/26 07:07:13;;;;;;;20.60;13.93;;;;;;;5.30;100.00;26146.88;5073896;28;20196;-65
2023/01/26 07:09:41;;;;;;;22.77;15.20;;;;;;;5.48;100.00;31269.97;5073851;28;20688;-66
2023/01/26 07:12:09;;;;;;;16.50;14.70;;;;;;;5.60;100.00;38003.00;5073656;28;20196;-66
2023/01/26 07:14:35;;;;;;;13.93;12.63;;;;;;;5.81;100.00;44437.97;5055955;28;20188;-65
2023/01/26 07:17:02;;;;;;;15.97;13.97;;;;;;;5.95;100.00;50883.00;5073434;28;20195;-66
2023/01/26 07:19:32;;;;;;;14.53;13.13;;;;;;;6.11;100.00;57990.72;5073763;28;20185;-63
2023/01/26 07:21:59;;;;;;;13.73;12.43;;;;;;;6.51;100.00;67087.19;5073447;28;20188;-62
2023/01/26 07:24:26;;;;;;;12.17;11.00;;;;;;;7.04;100.00;91545.72;5073417;28;20208;-63
2023/01/26 07:26:55;;;;;;;12.30;11.30;;;;;;;8.06;100.00;143653.59;5073371;28;20188;-63
2023/01/26 07:29:22;;;;;;;15.00;12.57;;;;;;;8.62;100.00;148212.00;5073268;28;20572;-63
2023/01/26 07:31:49;;;;;;;14.40;13.03;;;;;;;9.29;100.00;148378.66;5073518;28;20575;-63
2023/01/26 07:34:18;;;;;;;14.63;13.13;;;;;;;9.40;100.00;148406.44;5073349;28;20196;-64
2023/01/26 07:36:45;;;;;;;14.47;13.10;;;;;;;9.67;100.00;148472.13;5073519;28;20643;-63
2023/01/26 07:39:12;;;;;;;13.57;12.50;;;;;;;9.39;100.00;148402.63;5073493;28;20185;-61
2023/01/26 07:41:40;;;;;;;13.17;11.97;;;;;;;9.11;100.00;148334.47;5073278;28;20185;-62
2023/01/26 07:44:11;;;;;;;12.43;11.37;;;;;;;8.94;100.00;148290.28;5073108;28;20185;-62
2023/01/26 07:46:38;;;;;;;13.57;12.27;;;;;;;9.27;100.00;148372.31;5073101;28;20532;-63
2023/01/26 07:49:05;;;;;;;14.27;12.83;;;;;;;9.99;100.00;148552.94;5055448;28;20216;-62
2023/01/26 07:51:32;;;;;;;15.33;14.03;;;;;;;10.18;100.00;148599.78;5072841;28;20188;-62
2023/01/26 07:53:59;;;;;;;16.00;14.07;;;;;;;10.44;100.00;148665.44;5073087;28;20185;-62
2023/01/26 07:56:26;;;;;;;12.67;11.77;;;;;;;9.91;100.00;148532.75;5072818;28;20184;-62
2023/01/26 07:58:54;;;;;;;12.93;11.70;;;;;;;10.10;100.00;148580.72;5072859;28;20219;-61
2023/01/26 08:01:22;;;;;;;10.93;9.90;;;;;;;10.23;100.00;148612.38;5073000;28;20556;-62
2023/01/26 08:03:52;;;;;;;11.87;10.77;;;;;;;10.66;100.00;148719.81;5072504;28;20185;-63
2023/01/26 08:06:19;;;;;;;12.90;11.77;;;;;;;10.74;100.00;148741.28;5072308;28;20185;-63
2023/01/26 08:08:49;;;;;;;13.07;11.77;;;;;;;10.48;100.00;148676.81;5072630;28;20658;-64
2023/01/26 08:11:18;;;;;;;17.47;11.73;;;;;;;10.57;100.00;148697.03;5072864;28;20575;-64
2023/01/26 08:13:45;;;;;;;13.47;12.30;;;;;;;10.01;100.00;148558.03;5072500;28;20188;-62
2023/01/26 08:16:12;;;;;;;13.77;12.37;;;;;;;9.65;100.00;148468.31;5072585;28;20616;-63
2023/01/26 08:18:41;;;;;;;18.20;12.93;;;;;;;9.18;100.00;148352.13;5072057;28;20181;-62
2023/01/26 08:21:09;;;;;;;20.77;16.23;;;;;;;8.98;100.00;148301.66;5072377;28;20181;-63
2023/01/26 08:23:36;;;;;;;16.53;14.63;;;;;;;8.21;100.00;148109.75;5072162;28;20195;-64
2023/01/26 08:26:04;;;;;;;28.83;15.07;;;;;;;8.39;100.00;148152.72;5072748;28;20193;-62
2023/01/26 08:28:31;;;;;;;24.37;15.77;;;;;;;8.70;100.00;148232.19;5071934;28;20195;-63
2023/01/26 08:31:03;;;;;;;29.17;15.33;;;;;;;8.63;100.00;148214.53;5072287;28;20208;-63
2023/01/26 08:33:31;;;;;;;23.97;14.87;;;;;;;8.16;100.00;148095.88;5072599;28;20659;-62
2023/01/26 08:36:02;;;;;;;18.50;14.47;;;;;;;7.88;100.00;148025.25;5072009;28;20323;-62
2023/01/26 08:38:30;;;;;;;18.20;13.80;;;;;;;7.44;100.00;147916.78;5071953;28;20185;-62
2023/01/26 08:40:57;;;;;;;20.63;14.17;;;;;;;7.64;100.00;147967.22;5071982;28;20653;-65
2023/01/26 08:43:24;;;;;;;29.13;16.80;;;;;;;7.64;100.00;147740.25;5054163;28;20659;-64
2023/01/26 08:45:51;;;;;;;33.10;21.87;;;;;;;7.86;100.00;143994.81;5072285;28;20279;-64
2023/01/26 08:48:18;;;;;;;18.80;15.83;;;;;;;7.93;100.00;147391.66;5071988;28;20193;-63
2023/01/26 08:50:45;;;;;;;30.00;19.37;;;;;;;7.84;100.00;145160.41;5072144;28;20219;-63
2023/01/26 08:53:14;;;;;;;25.53;18.97;;;;;;;7.54;100.00;121482.22;5072030;28;20291;-63
2023/01/26 08:55:45;;;;;;;26.27;19.27;;;;;;;7.41;100.00;104366.03;5071798;28;20192;-63
2023/01/26 08:58:12;;;;;;;27.20;20.87;;;;;;;7.30;100.00;97143.13;5054751;28;20216;-63
2023/01/26 09:00:39;;;;;;;30.70;20.10;;;;;;;7.29;100.00;79521.41;5071560;28;20192;-65
2023/01/26 09:03:06;;;;;;;29.67;20.97;;;;;;;7.18;100.00;67812.25;5071719;28;20204;-63
2023/01/26 09:05:35;;;;;;;30.40;20.47;;;;;;;7.17;100.00;58096.63;5071780;28;20596;-63
2023/01/26 09:08:03;;;;;;;30.73;19.47;;;;;;;7.00;100.00;44852.03;5071717;28;20674;-63
2023/01/26 09:10:32;;;;;;;29.80;20.27;;;;;;;6.80;100.00;34230.44;5070960;28;20227;-64
2023/01/26 09:12:59;;;;;;;27.43;20.63;;;;;;;6.63;100.00;27490.44;5071333;28;20192;-64
2023/01/26 09:15:27;;;;;;;25.77;19.77;;;;;;;6.73;100.00;23335.25;5071602;28;20196;-66
2023/01/26 09:17:53;;;;;;;26.03;18.90;;;;;;;6.74;100.00;18222.97;5071670;28;20215;-63
2023/01/26 09:20:21;;;;;;;25.83;19.43;;;;;;;6.72;100.00;14073.91;5071069;28;20192;-64
2023/01/26 09:22:48;;;;;;;27.30;19.73;;;;;;;6.80;100.00;13757.25;5071320;28;20216;-63
2023/01/26 09:25:15;;;;;;;27.63;20.13;;;;;;;6.81;100.00;16948.09;5072122;28;20639;-63
2023/01/26 09:27:43;;;;;;;27.97;20.93;;;;;;;6.80;100.00;16309.53;5071640;28;20203;-63
2023/01/26 09:30:11;;;;;;;34.37;22.83;;;;;;;6.83;100.00;17906.59;5071218;28;20209;-62
2023/01/26 09:32:40;;;;;;;28.77;20.60;;;;;;;6.63;100.00;19176.84;5070803;28;20226;-61
2023/01/26 09:35:10;;;;;;;33.73;22.10;;;;;;;6.45;100.00;19170.44;5071240;28;20231;-62
2023/01/26 09:37:37;;;;;;;36.47;20.80;;;;;;;6.53;100.00;18854.09;5070412;28;20257;-61
2023/01/26 09:40:06;;;;;;;32.13;21.80;;;;;;;6.28;100.00;17568.81;5070829;28;20659;-62
2023/01/26 09:42:44;;;;;;;41.53;22.03;;;;;;;6.26;100.00;8966.41;5070983;28;20189;-63
2023/01/26 09:45:26;;;;;;;24.87;19.90;;;;;;;6.18;100.00;7056.50;5071331;28;20658;-63
2023/01/26 09:48:08;;;;;;;29.53;20.90;;;;;;;6.20;100.00;4831.91;5071354;28;20185;-64
2023/01/26 09:50:41;;;;;;;27.17;19.80;;;;;;;6.23;100.00;5467.88;5071085;28;20567;-64
2023/01/26 09:53:15;;;;;;;28.23;19.80;;;;;;;6.25;100.00;8647.97;5070768;28;20238;-63
2023/01/26 09:55:42;;;;;;;32.67;21.13;;;;;;;6.29;100.00;9921.72;5071617;28;20185;-64
2023/01/26 09:58:14;;;;;;;30.70;20.50;;;;;;;6.23;100.00;11298.03;5071042;28;20579;-63
2023/01/26 10:00:47;;;;;;;33.13;21.70;;;;;;;6.30;100.00;11832.06;5071185;28;20196;-63
2023/01/26 10:03:25;;;;;;;33.67;22.20;;;;;;;6.35;100.00;11017.25;5071589;28;20188;-64
2023/01/26 10:05:58;;;;;;;39.97;21.03;;;;;;;6.53;100.00;11481.69;5071491;28;20580;-65
2023/01/26 10:08:25;;;;;;;31.37;20.47;;;;;;;6.73;100.00;13703.00;5070906;28;20185;-64
2023/01/26 10:10:57;;;;;;;29.67;20.83;;;;;;;6.77;100.00;16669.97;5070822;28;20211;-65
2023/01/26 10:13:25;;;;;;;35.67;22.30;;;;;;;6.75;100.00;19715.47;5071089;28;20225;-64
2023/01/26 10:15:58;;;;;;;51.27;27.43;;;;;;;6.68;100.00;18373.03;5070957;28;20682;-63
2023/01/26 10:18:30;;;;;;;53.07;27.20;;;;;;;6.78;100.00;14436.91;5071006;28;20185;-63
2023/01/26 10:20:59;;;;;;;41.97;24.40;;;;;;;6.81;100.00;11844.56;5071024;28;20188;-62
2023/01/26 10:23:29;;;;;;;36.17;24.30;;;;;;;6.60;100.00;12342.28;5074178;28;20559;-63
2023/01/26 10:26:02;;;;;;;37.20;24.57;;;;;;;6.72;100.00;11936.84;5075220;28;20271;-62
2023/01/26 10:28:31;;;;;;;44.20;25.77;;;;;;;6.49;100.00;9925.88;5074859;28;20223;-64
2023/01/26 10:30:59;;;;;;;40.60;24.47;;;;;;;6.49;100.00;7697.84;5075242;28;20231;-62
2023/01/26 10:33:31;;;;;;;51.30;25.53;;;;;;;6.49;100.00;4199.91;5071736;28;20903;-63
2023/01/26 10:35:58;;;;;;;44.83;26.70;;;;;;;6.40;100.00;4516.69;5056657;28;20291;-64
2023/01/26 10:38:40;;;;;;;42.37;25.43;;;;;;;6.65;100.00;5155.69;5054917;28;20181;-62
2023/01/26 10:41:21;;;;;;;43.87;25.67;;;;;;;6.73;100.00;5156.81;5054722;28;20186;-63
2023/01/26 10:43:52;;;;;;;47.10;26.27;;;;;;;7.03;100.00;5797.28;5055273;28;20193;-63
2023/01/26 10:46:30;;;;;;;44.27;25.90;;;;;;;7.16;100.00;8028.22;5054480;28;20190;-63
2023/01/26 10:48:59;;;;;;;41.83;27.63;;;;;;;7.15;100.00;10475.13;5054442;28;20633;-62
2023/01/26 10:51:29;;;;;;;48.93;28.73;;;;;;;7.21;100.00;10187.56;5054027;28;20201;-63
2023/01/26 10:54:29;;;;;;;55.43;31.63;;;;;;;7.32;100.00;9031.91;5054471;28;20208;-64
2023/01/26 10:56:58;;;;;;;55.67;31.27;;;;;;;7.41;100.00;11183.47;4996325;28;20279;-63
2023/01/26 10:59:32;;;;;;;41.47;24.40;;;;;;;7.49;100.00;11758.75;5012301;28;20242;-64
2023/01/26 11:02:02;;;;;;;39.53;23.53;;;;;;;7.52;100.00;12193.28;5012253;28;20206;-64
2023/01/26 11:04:30;;;;;;;25.40;16.73;;;;;;;7.65;100.00;16031.69;5013176;28;20274;-63
2023/01/26 11:07:24;;;;;;;15.73;11.13;;;;;;;7.90;100.00;18425.31;5012302;28;20593;-64
2023/01/26 11:09:51;;;;;;;15.73;11.60;;;;;;;8.10;100.00;17434.94;5012035;28;20191;-63
2023/01/26 11:12:19;;;;;;;16.57;11.73;;;;;;;8.17;100.00;15046.00;5011772;28;20285;-64
2023/01/26 11:15:01;;;;;;;12.17;9.70;;;;;;;8.19;100.00;17312.97;5011421;28;20201;-63
2023/01/26 11:17:33;;;;;;;15.57;9.10;;;;;;;8.05;100.00;22110.44;5011566;28;20235;-65
2023/01/26 11:20:26;;;;;;;11.87;9.33;;;;;;;8.25;100.00;25966.34;5011557;28;20193;-64
2023/01/26 11:23:01;;;;;;;25.60;10.73;;;;;;;8.41;100.00;26294.91;5011955;28;20191;-63
2023/01/26 11:25:35;;;;;;;12.63;9.17;;;;;;;8.33;100.00;25007.44;5011604;28;20670;-64
2023/01/26 11:28:20;;;;;;;9.20;8.07;;;;;;;8.25;100.00;27570.91;5035471;28;20730;-64
2023/01/26 11:31:09;;;;;;;9.33;8.43;;;;;;;8.40;100.00;32398.03;5053631;28;20568;-63
2023/01/26 11:33:45;;;;;;;10.00;8.97;;;;;;;8.39;100.00;34005.50;5052771;28;20197;-64
2023/01/26 11:36:23;;;;;;;10.40;9.37;;;;;;;8.53;100.00;32405.63;5053316;28;20225;-64
2023/01/26 11:39:00;;;;;;;12.17;9.67;;;;;;;8.55;100.00;33693.19;5035385;28;20192;-64
2023/01/26 11:41:38;;;;;;;10.60;9.20;;;;;;;8.64;100.00;35630.22;5053467;28;20185;-63
2023/01/26 11:44:20;;;;;;;10.70;9.83;;;;;;;8.60;100.00;40138.03;5035277;28;20205;-64
2023/01/26 11:47:06;;;;;;;9.67;8.87;;;;;;;8.71;100.00;47570.22;5053318;28;20189;-64
2023/01/26 11:49:51;;;;;;;9.30;8.43;;;;;;;8.67;100.00;60192.63;5053043;28;20216;-64
2023/01/26 11:52:27;;;;;;;9.53;8.63;;;;;;;8.79;100.00;66373.84;5052905;28;20209;-64
2023/01/26 11:55:07;;;;;;;8.47;7.57;;;;;;;8.70;100.00;67988.63;5052972;28;20520;-65
2023/01/26 11:57:41;;;;;;;7.93;7.07;;;;;;;8.77;100.00;71900.72;5052952;28;20637;-64
2023/01/26 12:00:16;;;;;;;9.03;8.43;;;;;;;8.63;100.00;68305.50;5053049;28;20365;-64
2023/01/26 12:02:45;;;;;;;13.50;10.77;;;;;;;8.67;100.00;64411.69;5052833;28;20268;-65
2023/01/26 12:05:21;;;;;;;9.80;8.80;;;;;;;8.91;100.00;83659.06;5052745;28;20296;-63
2023/01/26 12:07:54;;;;;;;15.10;10.43;;;;;;;8.92;100.00;98393.47;5053096;28;20193;-63
2023/01/26 12:10:24;;;;;;;7.70;7.10;;;;;;;8.85;100.00;96413.09;5052772;28;20185;-63
2023/01/26 12:13:00;;;;;;;19.47;11.37;;;;;;;9.06;100.00;93497.09;5052689;28;20247;-62
2023/01/26 12:15:33;;;;;;;11.03;9.77;;;;;;;9.04;100.00;102682.38;5052966;28;20185;-63
2023/01/26 12:18:05;;;;;;;10.47;9.37;;;;;;;9.09;100.00;106306.63;5052737;28;20181;-63
2023/01/26 12:20:39;;;;;;;14.00;9.37;;;;;;;9.13;100.00;100726.16;5052923;28;20693;-64